Time;durP1;ratioP1;P1;durP2;ratioP2;P2;SDS_P1;SDS_P2;PMS_P1;PMS_P2;Temp;Humidity;BMP_temperature;BMP_pressure;BME280_temperature;BME280_humidity;BME280_pressure;Samples;Min_cycle;Max_cycle;Signal;HPM_P1;HPM_P2
2023/06/12 00:02:19;;;;;;;11.27;3.33;;;;;;;;;;4997248;28;20042;-74
2023/06/12 00:04:46;;;;;;;7.50;3.10;;;;;;;;;;4996559;28;20412;-74
2023/06/12 00:07:13;;;;;;;9.43;3.10;;;;;;;;;;4995830;28;20496;-74
2023/06/12 00:09:39;;;;;;;10.65;3.67;;;;;;;;;;4997582;28;20096;-73
2023/06/12 00:12:06;;;;;;;8.25;3.00;;;;;;;;;;4996469;28;20405;-74
2023/06/12 00:14:32;;;;;;;7.00;3.15;;;;;;;;;;4990227;28;20043;-74
2023/06/12 00:16:58;;;;;;;14.00;3.55;;;;;;;;;;4994138;28;20042;-74
2023/06/12 00:19:25;;;;;;;10.93;3.08;;;;;;;;;;4997137;28;20413;-74
2023/06/12 00:21:52;;;;;;;7.13;3.08;;;;;;;;;;4997429;28;20058;-74
2023/06/12 00:24:19;;;;;;;7.93;3.10;;;;;;;;;;4997234;28;20101;-74
2023/06/12 00:26:45;;;;;;;7.93;3.28;;;;;;;;;;4995135;28;20043;-74
2023/06/12 00:29:11;;;;;;;8.85;3.28;;;;;;;;;;4996209;28;20049;-74
2023/06/12 00:31:37;;;;;;;11.13;3.30;;;;;;;;;;4996018;28;20513;-75
2023/06/12 00:34:03;;;;;;;6.70;2.90;;;;;;;;;;4994746;28;20511;-74
2023/06/12 00:36:29;;;;;;;8.32;3.40;;;;;;;;;;4984059;28;20416;-75
2023/06/12 00:38:55;;;;;;;11.13;3.55;;;;;;;;;;4978259;28;20050;-74
2023/06/12 00:41:21;;;;;;;11.77;3.70;;;;;;;;;;4985444;28;20050;-74
2023/06/12 00:43:47;;;;;;;9.95;3.08;;;;;;;;;;4989300;28;20034;-74
2023/06/12 00:46:14;;;;;;;12.65;3.28;;;;;;;;;;4998413;28;20046;-75
2023/06/12 00:48:41;;;;;;;9.75;3.15;;;;;;;;;;4994572;28;20451;-74
2023/06/12 00:51:10;;;;;;;9.75;2.92;;;;;;;;;;4986937;28;20043;-74
2023/06/12 00:53:36;;;;;;;9.93;3.30;;;;;;;;;;4997954;28;20042;-74
2023/06/12 00:56:02;;;;;;;7.72;3.00;;;;;;;;;;4981970;28;20119;-74
2023/06/12 00:58:29;;;;;;;9.02;3.15;;;;;;;;;;4983842;28;20042;-75
2023/06/12 01:00:56;;;;;;;9.77;3.50;;;;;;;;;;4977888;28;20042;-74
2023/06/12 01:03:24;;;;;;;9.25;2.80;;;;;;;;;;4985392;28;20062;-74
2023/06/12 01:05:51;;;;;;;8.95;3.35;;;;;;;;;;5001122;28;20078;-74
2023/06/12 01:08:18;;;;;;;9.13;2.70;;;;;;;;;;4999800;28;20050;-74
2023/06/12 01:10:58;;;;;;;8.30;3.10;;;;;;;;;;4998714;28;20515;-75
2023/06/12 01:13:24;;;;;;;11.02;3.45;;;;;;;;;;4999468;28;20407;-74
2023/06/12 01:15:51;;;;;;;10.77;3.15;;;;;;;;;;4993160;28;20126;-74
2023/06/12 01:18:17;;;;;;;7.03;2.83;;;;;;;;;;4990618;28;20046;-74
2023/06/12 01:20:43;;;;;;;8.90;3.20;;;;;;;;;;4995596;28;20089;-74
2023/06/12 01:23:12;;;;;;;8.50;3.45;;;;;;;;;;4980810;28;20109;-75
2023/06/12 01:25:54;;;;;;;10.45;3.10;;;;;;;;;;4995914;28;20114;-74
2023/06/12 01:28:37;;;;;;;9.85;3.33;;;;;;;;;;4991312;28;20080;-74
2023/06/12 01:31:14;;;;;;;9.13;3.33;;;;;;;;;;4979929;28;20493;-74
2023/06/12 01:33:43;;;;;;;12.02;3.50;;;;;;;;;;4985062;28;20050;-75
2023/06/12 01:36:10;;;;;;;10.02;3.22;;;;;;;;;;4995239;28;20077;-75
2023/06/12 01:38:39;;;;;;;8.73;3.67;;;;;;;;;;4997594;28;20065;-75
2023/06/12 01:41:06;;;;;;;9.30;3.05;;;;;;;;;;4997175;28;20054;-75
2023/06/12 01:43:32;;;;;;;8.75;2.92;;;;;;;;;;4993659;28;20050;-75
2023/06/12 01:45:58;;;;;;;10.73;3.00;;;;;;;;;;4998928;28;20046;-74
2023/06/12 01:48:24;;;;;;;9.27;2.95;;;;;;;;;;4995738;28;20045;-75
2023/06/12 01:50:50;;;;;;;11.77;3.33;;;;;;;;;;4992397;28;20057;-74
2023/06/12 01:53:16;;;;;;;9.10;3.10;;;;;;;;;;4979840;28;20066;-75
2023/06/12 01:55:44;;;;;;;9.40;3.60;;;;;;;;;;4991275;28;20078;-74
2023/06/12 01:58:10;;;;;;;7.97;3.50;;;;;;;;;;4998873;28;20500;-74
2023/06/12 02:00:36;;;;;;;11.38;3.25;;;;;;;;;;4999148;28;20042;-74
2023/06/12 02:03:02;;;;;;;12.23;3.28;;;;;;;;;;4970016;28;20053;-74
2023/06/12 02:05:28;;;;;;;12.02;3.55;;;;;;;;;;5007379;28;20053;-74
2023/06/12 02:07:54;;;;;;;10.52;3.28;;;;;;;;;;4985442;28;20125;-74
2023/06/12 02:10:21;;;;;;;11.10;3.33;;;;;;;;;;4997448;28;20050;-74
2023/06/12 02:12:47;;;;;;;8.63;3.17;;;;;;;;;;4997166;28;20539;-74
2023/06/12 02:15:13;;;;;;;10.77;3.50;;;;;;;;;;4998209;28;20042;-74
2023/06/12 02:17:39;;;;;;;10.43;3.60;;;;;;;;;;4997824;28;20049;-74
2023/06/12 02:20:06;;;;;;;8.55;4.07;;;;;;;;;;4997253;28;20043;-75
2023/06/12 02:22:32;;;;;;;12.05;3.83;;;;;;;;;;4997838;28;20412;-74
2023/06/12 02:24:58;;;;;;;11.00;3.60;;;;;;;;;;4994081;28;20436;-74
2023/06/12 02:27:24;;;;;;;10.35;3.95;;;;;;;;;;4987350;28;20045;-74
2023/06/12 02:29:50;;;;;;;13.88;5.18;;;;;;;;;;4983843;28;20054;-74
2023/06/12 02:32:16;;;;;;;9.23;4.10;;;;;;;;;;4990709;28;20117;-74
2023/06/12 02:34:43;;;;;;;9.85;4.50;;;;;;;;;;4998787;28;20050;-74
2023/06/12 02:37:09;;;;;;;10.27;4.05;;;;;;;;;;4999242;28;20143;-74
2023/06/12 02:39:35;;;;;;;15.48;4.72;;;;;;;;;;4999721;28;20046;-75
2023/06/12 02:42:01;;;;;;;15.07;4.28;;;;;;;;;;4982123;28;20070;-75
2023/06/12 02:44:29;;;;;;;11.70;4.18;;;;;;;;;;4980082;28;20106;-75
2023/06/12 02:46:56;;;;;;;11.25;4.30;;;;;;;;;;4998482;28;20049;-74
2023/06/12 02:49:25;;;;;;;13.70;4.15;;;;;;;;;;4998183;28;20050;-75
2023/06/12 02:51:51;;;;;;;8.73;4.10;;;;;;;;;;5000312;28;20050;-75
2023/06/12 02:54:18;;;;;;;8.88;4.57;;;;;;;;;;4997546;28;20477;-73
2023/06/12 02:56:47;;;;;;;11.18;4.30;;;;;;;;;;4994187;28;20064;-73
2023/06/12 02:59:15;;;;;;;11.20;4.00;;;;;;;;;;4998132;28;20054;-73
2023/06/12 03:01:43;;;;;;;8.02;4.05;;;;;;;;;;4995341;28;20047;-74
2023/06/12 03:04:11;;;;;;;12.73;4.78;;;;;;;;;;4983246;28;20125;-74
2023/06/12 03:06:38;;;;;;;12.45;4.28;;;;;;;;;;4992299;28;20053;-74
2023/06/12 03:09:05;;;;;;;9.48;4.28;;;;;;;;;;4987020;28;20058;-74
2023/06/12 03:11:32;;;;;;;12.55;4.47;;;;;;;;;;4989283;28;20046;-73
2023/06/12 03:13:58;;;;;;;9.40;4.38;;;;;;;;;;4988650;28;20051;-74
2023/06/12 03:16:24;;;;;;;10.25;4.43;;;;;;;;;;4981330;28;20043;-74
2023/06/12 03:18:50;;;;;;;11.68;4.18;;;;;;;;;;4990215;28;20053;-74
2023/06/12 03:21:16;;;;;;;14.25;4.30;;;;;;;;;;4992362;28;20132;-73
2023/06/12 03:23:42;;;;;;;10.00;4.10;;;;;;;;;;4986542;28;20047;-74
2023/06/12 03:26:09;;;;;;;11.38;4.20;;;;;;;;;;4993146;28;20046;-75
2023/06/12 03:28:35;;;;;;;7.45;4.13;;;;;;;;;;4985116;28;20489;-75
2023/06/12 03:31:01;;;;;;;8.35;3.85;;;;;;;;;;4997212;28;20472;-75
2023/06/12 03:33:27;;;;;;;7.63;4.07;;;;;;;;;;4994602;28;20126;-74
2023/06/12 03:35:53;;;;;;;9.20;4.22;;;;;;;;;;4993819;28;20038;-75
2023/06/12 03:38:19;;;;;;;10.32;3.90;;;;;;;;;;4980836;28;20043;-75
2023/06/12 03:40:45;;;;;;;11.93;4.30;;;;;;;;;;4981898;28;20062;-73
2023/06/12 03:43:11;;;;;;;10.80;4.05;;;;;;;;;;4992584;28;20050;-74
2023/06/12 03:45:37;;;;;;;10.65;4.45;;;;;;;;;;4989811;28;20074;-74
2023/06/12 03:48:04;;;;;;;11.07;4.70;;;;;;;;;;4986769;28;20101;-74
2023/06/12 03:50:30;;;;;;;8.80;4.78;;;;;;;;;;4982498;28;20057;-75
2023/06/12 03:52:56;;;;;;;12.07;4.57;;;;;;;;;;4994151;28;20103;-74
2023/06/12 03:55:23;;;;;;;10.45;4.78;;;;;;;;;;4995188;28;20062;-75
2023/06/12 03:57:50;;;;;;;8.98;4.93;;;;;;;;;;4993620;28;20081;-75
2023/06/12 04:00:17;;;;;;;11.15;4.50;;;;;;;;;;4978312;28;20400;-74
2023/06/12 04:02:43;;;;;;;11.52;4.57;;;;;;;;;;4978495;28;20051;-74
2023/06/12 04:05:09;;;;;;;13.50;4.70;;;;;;;;;;4977503;28;20504;-74
2023/06/12 04:07:36;;;;;;;10.45;4.75;;;;;;;;;;4977751;28;20053;-75
2023/06/12 04:10:03;;;;;;;13.75;4.35;;;;;;;;;;4977531;28;20074;-74
2023/06/12 04:12:29;;;;;;;14.30;5.03;;;;;;;;;;4977747;28;20051;-75
2023/06/12 04:14:55;;;;;;;10.75;4.47;;;;;;;;;;4992106;28;20174;-75
2023/06/12 04:17:21;;;;;;;11.35;4.93;;;;;;;;;;4984679;28;20051;-74
2023/06/12 04:19:49;;;;;;;11.15;4.47;;;;;;;;;;4976270;28;20039;-74
2023/06/12 04:22:16;;;;;;;10.35;4.50;;;;;;;;;;4993328;28;20484;-75
2023/06/12 04:24:47;;;;;;;9.68;4.20;;;;;;;;;;4989207;28;20500;-74
2023/06/12 04:27:13;;;;;;;11.53;4.40;;;;;;;;;;4993128;28;20464;-75
2023/06/12 04:29:42;;;;;;;11.70;4.20;;;;;;;;;;4993920;28;20058;-74
2023/06/12 04:32:09;;;;;;;9.18;4.25;;;;;;;;;;4993057;28;20096;-75
2023/06/12 04:34:40;;;;;;;11.48;4.07;;;;;;;;;;4996502;28;20101;-74
2023/06/12 04:37:09;;;;;;;8.57;4.30;;;;;;;;;;4986618;28;20114;-75
2023/06/12 04:39:38;;;;;;;8.57;4.22;;;;;;;;;;4981082;28;21211;-74
2023/06/12 04:42:05;;;;;;;9.25;3.97;;;;;;;;;;4996031;28;20041;-75
2023/06/12 04:44:34;;;;;;;9.85;4.15;;;;;;;;;;4996318;28;20124;-75
2023/06/12 04:47:02;;;;;;;9.52;4.25;;;;;;;;;;4982803;28;20181;-74
2023/06/12 04:49:29;;;;;;;13.18;4.80;;;;;;;;;;4994325;28;20049;-75
2023/06/12 04:51:56;;;;;;;9.43;4.72;;;;;;;;;;4992450;28;20133;-75
2023/06/12 04:54:22;;;;;;;11.75;4.70;;;;;;;;;;4981796;28;20083;-74
2023/06/12 04:56:50;;;;;;;11.60;4.88;;;;;;;;;;4988462;28;20404;-75
2023/06/12 04:59:16;;;;;;;11.68;4.72;;;;;;;;;;4995595;28;20497;-74
2023/06/12 05:01:44;;;;;;;12.48;4.80;;;;;;;;;;4994974;28;20128;-74
2023/06/12 05:04:11;;;;;;;11.50;4.93;;;;;;;;;;4995665;28;20046;-74
2023/06/12 05:06:40;;;;;;;9.98;4.78;;;;;;;;;;4988023;28;20043;-75
2023/06/12 05:09:07;;;;;;;14.05;5.15;;;;;;;;;;4995515;28;20053;-75
2023/06/12 05:11:33;;;;;;;10.68;5.70;;;;;;;;;;5008830;28;20042;-74
2023/06/12 05:13:59;;;;;;;11.13;5.32;;;;;;;;;;4996072;28;20555;-75
2023/06/12 05:16:28;;;;;;;10.40;4.90;;;;;;;;;;4995304;28;20397;-74
2023/06/12 05:18:54;;;;;;;9.20;4.80;;;;;;;;;;4995123;28;20051;-74
2023/06/12 05:21:20;;;;;;;11.10;4.82;;;;;;;;;;4992990;28;20097;-74
2023/06/12 05:23:48;;;;;;;9.32;4.95;;;;;;;;;;4998025;28;20046;-74
2023/06/12 05:26:14;;;;;;;10.90;5.40;;;;;;;;;;4997150;28;20420;-76
2023/06/12 05:28:40;;;;;;;8.95;5.20;;;;;;;;;;4996638;28;20058;-75
2023/06/12 05:31:06;;;;;;;13.38;5.60;;;;;;;;;;4995955;28;20061;-75
2023/06/12 05:33:32;;;;;;;9.55;5.28;;;;;;;;;;4994390;28;20053;-74
2023/06/12 05:35:59;;;;;;;10.25;5.20;;;;;;;;;;4991429;28;20098;-75
2023/06/12 05:38:25;;;;;;;13.55;5.35;;;;;;;;;;4977218;28;20093;-74
2023/06/12 05:40:52;;;;;;;12.73;4.90;;;;;;;;;;4964340;28;20061;-75
2023/06/12 05:43:18;;;;;;;9.45;5.20;;;;;;;;;;4988246;28;20047;-74
2023/06/12 05:45:44;;;;;;;13.18;5.28;;;;;;;;;;4977704;28;20050;-74
2023/06/12 05:48:10;;;;;;;11.32;5.53;;;;;;;;;;4993662;28;20078;-74
2023/06/12 05:50:36;;;;;;;11.95;5.10;;;;;;;;;;4985118;28;20053;-75
2023/06/12 05:53:02;;;;;;;11.80;4.97;;;;;;;;;;5000014;28;20096;-75
2023/06/12 05:55:28;;;;;;;10.15;5.40;;;;;;;;;;4988387;28;20046;-75
2023/06/12 05:57:54;;;;;;;9.43;4.88;;;;;;;;;;4981036;28;20116;-75
2023/06/12 06:00:24;;;;;;;10.32;4.97;;;;;;;;;;4980073;28;20054;-75
2023/06/12 06:02:50;;;;;;;11.48;4.97;;;;;;;;;;4977544;28;20039;-75
2023/06/12 06:05:17;;;;;;;10.85;5.35;;;;;;;;;;4989120;28;20492;-75
2023/06/12 06:07:43;;;;;;;10.07;5.15;;;;;;;;;;4995432;28;20051;-76
2023/06/12 06:10:09;;;;;;;9.52;5.07;;;;;;;;;;4979305;28;20053;-74
2023/06/12 06:12:35;;;;;;;9.43;5.13;;;;;;;;;;4992047;28;20109;-74
2023/06/12 06:15:02;;;;;;;11.32;5.55;;;;;;;;;;4992465;28;20050;-74
2023/06/12 06:17:28;;;;;;;7.70;4.95;;;;;;;;;;4979873;28;20046;-74
2023/06/12 06:19:54;;;;;;;12.05;5.00;;;;;;;;;;4988721;28;20050;-74
2023/06/12 06:22:24;;;;;;;10.90;5.45;;;;;;;;;;4995629;28;20544;-75
2023/06/12 06:24:50;;;;;;;13.45;5.00;;;;;;;;;;4980069;28;20061;-74
2023/06/12 06:27:16;;;;;;;11.93;5.15;;;;;;;;;;4990645;28;20400;-74
2023/06/12 06:29:42;;;;;;;8.48;5.15;;;;;;;;;;4983076;28;20058;-74
2023/06/12 06:32:08;;;;;;;11.85;5.40;;;;;;;;;;4968004;28;20042;-73
2023/06/12 06:34:34;;;;;;;9.38;5.53;;;;;;;;;;4993902;28;20049;-74
2023/06/12 06:37:00;;;;;;;9.00;5.43;;;;;;;;;;4985034;28;20429;-74
2023/06/12 06:39:26;;;;;;;8.65;5.25;;;;;;;;;;4986295;28;20042;-74
2023/06/12 06:41:52;;;;;;;10.25;5.60;;;;;;;;;;4996523;28;20085;-74
2023/06/12 06:44:18;;;;;;;10.27;5.40;;;;;;;;;;4995613;28;20492;-73
2023/06/12 06:46:45;;;;;;;10.90;5.00;;;;;;;;;;4995183;28;20045;-74
2023/06/12 06:49:11;;;;;;;12.38;5.72;;;;;;;;;;4993762;28;20050;-74
2023/06/12 06:51:37;;;;;;;10.00;5.13;;;;;;;;;;4994531;28;20050;-74
2023/06/12 06:54:03;;;;;;;12.63;5.50;;;;;;;;;;4995151;28;20038;-74
2023/06/12 06:56:30;;;;;;;8.77;5.43;;;;;;;;;;4993344;28;20055;-74
2023/06/12 06:58:56;;;;;;;10.48;5.20;;;;;;;;;;4995411;28;20062;-73
2023/06/12 07:01:22;;;;;;;13.88;6.05;;;;;;;;;;4993081;28;20046;-74
2023/06/12 07:03:48;;;;;;;11.43;6.10;;;;;;;;;;4983266;28;20049;-74
2023/06/12 07:06:14;;;;;;;12.85;5.90;;;;;;;;;;4994029;28;20385;-74
2023/06/12 07:08:40;;;;;;;13.80;5.78;;;;;;;;;;4990562;28;20064;-73
2023/06/12 07:11:06;;;;;;;11.00;5.65;;;;;;;;;;4991632;28;20532;-73
2023/06/12 07:13:32;;;;;;;12.45;6.10;;;;;;;;;;4992461;28;20122;-73
2023/06/12 07:15:58;;;;;;;12.00;5.45;;;;;;;;;;4995104;28;20046;-73
2023/06/12 07:18:24;;;;;;;12.40;5.47;;;;;;;;;;4993889;28;20047;-72
2023/06/12 07:20:50;;;;;;;12.00;5.30;;;;;;;;;;4994970;28;20057;-72
2023/06/12 07:23:16;;;;;;;13.20;5.78;;;;;;;;;;4994448;28;20046;-74
2023/06/12 07:25:42;;;;;;;9.55;5.45;;;;;;;;;;4994241;28;20400;-73
2023/06/12 07:28:08;;;;;;;13.25;5.50;;;;;;;;;;4996105;28;20077;-73
2023/06/12 07:30:34;;;;;;;11.75;5.78;;;;;;;;;;4984578;28;20078;-73
2023/06/12 07:33:01;;;;;;;9.05;5.80;;;;;;;;;;4992186;28;20050;-74
2023/06/12 07:35:27;;;;;;;9.98;6.28;;;;;;;;;;4986574;28;20038;-74
2023/06/12 07:37:53;;;;;;;10.50;6.15;;;;;;;;;;4993387;28;20516;-73
2023/06/12 07:40:19;;;;;;;15.00;6.03;;;;;;;;;;4996323;28;20492;-73
2023/06/12 07:42:45;;;;;;;10.68;5.65;;;;;;;;;;4988293;28;20178;-73
2023/06/12 07:45:12;;;;;;;10.18;6.28;;;;;;;;;;4984429;28;20054;-74
2023/06/12 07:47:38;;;;;;;10.30;6.07;;;;;;;;;;4980477;28;20465;-73
2023/06/12 07:50:04;;;;;;;11.20;5.65;;;;;;;;;;4990536;28;20054;-75
2023/06/12 07:52:30;;;;;;;12.93;5.95;;;;;;;;;;4957825;28;20397;-74
2023/06/12 07:54:57;;;;;;;10.88;5.45;;;;;;;;;;4987011;28;20043;-73
2023/06/12 07:57:23;;;;;;;10.75;5.47;;;;;;;;;;4994083;28;20070;-73
2023/06/12 07:59:50;;;;;;;11.93;5.72;;;;;;;;;;4993349;28;20055;-73
2023/06/12 08:02:16;;;;;;;11.23;6.43;;;;;;;;;;4989317;28;20047;-73
2023/06/12 08:04:44;;;;;;;11.45;5.93;;;;;;;;;;4989371;28;20068;-74
2023/06/12 08:07:12;;;;;;;9.98;5.47;;;;;;;;;;4987718;28;20135;-72
2023/06/12 08:09:40;;;;;;;8.82;5.05;;;;;;;;;;4991600;28;20086;-74
2023/06/12 08:12:06;;;;;;;8.52;4.85;;;;;;;;;;4984737;28;20070;-74
2023/06/12 08:14:32;;;;;;;14.38;5.57;;;;;;;;;;4987370;28;20045;-71
2023/06/12 08:16:58;;;;;;;7.35;5.03;;;;;;;;;;4992248;28;20057;-72
2023/06/12 08:19:24;;;;;;;12.52;6.20;;;;;;;;;;4993214;28;20034;-72
2023/06/12 08:21:51;;;;;;;12.00;5.72;;;;;;;;;;4992290;28;20052;-73
2023/06/12 08:24:18;;;;;;;15.70;5.43;;;;;;;;;;4994262;28;20058;-73
2023/06/12 08:26:45;;;;;;;10.50;5.13;;;;;;;;;;4988785;28;20065;-73
2023/06/12 08:29:12;;;;;;;9.93;5.53;;;;;;;;;;4974367;28;20497;-73
2023/06/12 08:31:40;;;;;;;13.00;6.10;;;;;;;;;;4988673;28;20051;-72
2023/06/12 08:34:06;;;;;;;9.52;5.30;;;;;;;;;;4980468;28;20115;-72
2023/06/12 08:36:35;;;;;;;11.75;5.68;;;;;;;;;;4984694;28;20129;-72
2023/06/12 08:39:01;;;;;;;13.27;5.63;;;;;;;;;;4984323;28;20042;-73
2023/06/12 08:41:28;;;;;;;10.32;5.90;;;;;;;;;;4983955;28;20469;-72
2023/06/12 08:43:59;;;;;;;12.15;6.10;;;;;;;;;;4974126;28;20515;-73
2023/06/12 08:46:28;;;;;;;10.70;6.07;;;;;;;;;;4993368;28;20187;-73
2023/06/12 08:48:54;;;;;;;10.50;5.50;;;;;;;;;;4991907;28;20039;-72
2023/06/12 08:51:20;;;;;;;12.95;5.80;;;;;;;;;;4989789;28;20406;-73
2023/06/12 08:53:47;;;;;;;12.77;6.05;;;;;;;;;;4980167;28;20405;-73
2023/06/12 08:56:14;;;;;;;11.00;6.47;;;;;;;;;;4987650;28;20062;-71
2023/06/12 08:58:40;;;;;;;10.30;5.75;;;;;;;;;;4986731;28;20579;-72
2023/06/12 09:01:08;;;;;;;11.15;6.07;;;;;;;;;;4984184;28;20046;-72
2023/06/12 09:03:35;;;;;;;9.70;5.68;;;;;;;;;;4993214;28;20556;-73
2023/06/12 09:06:05;;;;;;;14.15;6.57;;;;;;;;;;4991958;28;20112;-73
2023/06/12 09:08:33;;;;;;;11.20;6.47;;;;;;;;;;4990975;28;20449;-73
2023/06/12 09:10:59;;;;;;;9.98;5.85;;;;;;;;;;4991181;28;20129;-73
2023/06/12 09:13:25;;;;;;;11.38;6.00;;;;;;;;;;4990287;28;20085;-73
2023/06/12 09:15:52;;;;;;;12.25;6.05;;;;;;;;;;4992766;28;20125;-72
2023/06/12 09:18:19;;;;;;;10.98;6.55;;;;;;;;;;4991472;28;20053;-72
2023/06/12 09:20:45;;;;;;;9.57;5.57;;;;;;;;;;4990415;28;20389;-72
2023/06/12 09:23:13;;;;;;;11.90;6.75;;;;;;;;;;4991672;28;20038;-73
2023/06/12 09:25:46;;;;;;;13.10;6.40;;;;;;;;;;4994494;28;20140;-73
2023/06/12 09:28:13;;;;;;;11.38;6.50;;;;;;;;;;4995612;28;20050;-73
2023/06/12 09:30:42;;;;;;;12.35;6.18;;;;;;;;;;4995881;28;20065;-73
2023/06/12 09:33:09;;;;;;;9.82;5.85;;;;;;;;;;4993100;28;20050;-72
2023/06/12 09:35:51;;;;;;;10.80;6.60;;;;;;;;;;4990677;28;20040;-72
2023/06/12 09:38:17;;;;;;;10.55;5.80;;;;;;;;;;4993578;28;20446;-73
2023/06/12 09:40:43;;;;;;;10.77;6.10;;;;;;;;;;4988558;28;20261;-72
2023/06/12 09:43:09;;;;;;;11.30;6.07;;;;;;;;;;4990183;28;21399;-73
2023/06/12 09:45:35;;;;;;;10.57;5.88;;;;;;;;;;4986536;28;20050;-73
2023/06/12 09:48:01;;;;;;;10.35;5.43;;;;;;;;;;4990427;28;20058;-72
2023/06/12 09:50:27;;;;;;;10.68;5.72;;;;;;;;;;4991628;28;20042;-72
2023/06/12 09:52:55;;;;;;;10.02;6.07;;;;;;;;;;4995367;28;20049;-74
2023/06/12 09:55:21;;;;;;;9.70;6.20;;;;;;;;;;4995023;28;20366;-73
2023/06/12 09:57:50;;;;;;;10.73;5.90;;;;;;;;;;4995567;28;20424;-73
2023/06/12 10:00:17;;;;;;;9.13;6.00;;;;;;;;;;4994730;28;20042;-73
2023/06/12 10:02:47;;;;;;;10.57;5.38;;;;;;;;;;4997088;28;20046;-72
2023/06/12 10:05:16;;;;;;;9.93;5.87;;;;;;;;;;4994878;28;20050;-72
2023/06/12 10:07:47;;;;;;;11.38;5.68;;;;;;;;;;4994954;28;20743;-72
2023/06/12 10:10:14;;;;;;;14.85;5.80;;;;;;;;;;4993372;28;20096;-72
2023/06/12 10:12:41;;;;;;;10.00;5.78;;;;;;;;;;4994638;28;20050;-72
2023/06/12 10:15:07;;;;;;;9.18;5.72;;;;;;;;;;4987188;28;20038;-73
2023/06/12 10:17:35;;;;;;;9.85;6.00;;;;;;;;;;4997914;28;20135;-73
2023/06/12 10:20:03;;;;;;;10.10;6.32;;;;;;;;;;4993643;28;20096;-73
2023/06/12 10:22:29;;;;;;;10.93;5.65;;;;;;;;;;4994752;28;20088;-72
2023/06/12 10:24:59;;;;;;;11.90;6.28;;;;;;;;;;4991441;28;20122;-72
2023/06/12 10:27:26;;;;;;;10.05;6.25;;;;;;;;;;4993134;28;20050;-72
2023/06/12 10:29:55;;;;;;;8.82;5.90;;;;;;;;;;4997233;28;20097;-73
2023/06/12 10:32:21;;;;;;;11.38;5.45;;;;;;;;;;4994754;28;20050;-73
2023/06/12 10:34:50;;;;;;;8.43;5.68;;;;;;;;;;4995362;28;20050;-73
2023/06/12 10:37:26;;;;;;;13.23;6.00;;;;;;;;;;4980984;28;20062;-72
2023/06/12 10:40:16;;;;;;;9.13;5.95;;;;;;;;;;4976774;28;20097;-72
2023/06/12 10:42:42;;;;;;;9.30;6.15;;;;;;;;;;4970138;28;20054;-72
2023/06/12 10:45:19;;;;;;;9.82;6.13;;;;;;;;;;4994482;28;20061;-71
2023/06/12 10:48:06;;;;;;;7.85;5.90;;;;;;;;;;4995311;28;20394;-72
2023/06/12 10:50:36;;;;;;;7.70;5.78;;;;;;;;;;4981195;28;20114;-71
2023/06/12 10:53:03;;;;;;;9.53;6.27;;;;;;;;;;4976982;28;20051;-73
2023/06/12 10:55:32;;;;;;;8.98;5.93;;;;;;;;;;4976852;28;20294;-73
2023/06/12 10:58:03;;;;;;;8.15;5.65;;;;;;;;;;4983333;28;20046;-74
2023/06/12 11:00:31;;;;;;;;;;;;;;;;;;4995058;28;20042;-73
2023/06/12 11:02:58;;;;;;;10.93;5.85;;;;;;;;;;4991323;28;20004;-73
2023/06/12 11:05:25;;;;;;;9.07;5.88;;;;;;;;;;4975449;28;20051;-73
2023/06/12 11:07:52;;;;;;;9.93;5.97;;;;;;;;;;4977031;28;20051;-73
2023/06/12 11:10:18;;;;;;;7.65;5.85;;;;;;;;;;4979520;28;20102;-73
2023/06/12 11:12:48;;;;;;;11.20;6.10;;;;;;;;;;4988942;28;20500;-73
2023/06/12 11:15:14;;;;;;;9.50;5.90;;;;;;;;;;4994493;28;20130;-74
2023/06/12 11:17:41;;;;;;;8.10;5.68;;;;;;;;;;4994624;28;20048;-73
2023/06/12 11:20:07;;;;;;;7.38;6.03;;;;;;;;;;4986512;28;20038;-73
2023/06/12 11:22:33;;;;;;;9.02;6.10;;;;;;;;;;4989994;28;20068;-72
2023/06/12 11:25:03;;;;;;;8.70;6.00;;;;;;;;;;4991738;28;20046;-73
2023/06/12 11:27:30;;;;;;;8.25;6.22;;;;;;;;;;4989976;28;20053;-73
2023/06/12 11:29:56;;;;;;;8.68;6.22;;;;;;;;;;4993710;28;20492;-73
2023/06/12 11:32:22;;;;;;;8.65;5.88;;;;;;;;;;4993752;28;20074;-73
2023/06/12 11:34:51;;;;;;;9.00;6.10;;;;;;;;;;4995358;28;20515;-73
2023/06/12 11:37:21;;;;;;;9.43;6.60;;;;;;;;;;4995363;28;20050;-73
2023/06/12 11:39:47;;;;;;;9.60;5.90;;;;;;;;;;4993770;28;20054;-73
2023/06/12 11:42:13;;;;;;;9.68;6.93;;;;;;;;;;4986793;28;20042;-73
2023/06/12 11:44:40;;;;;;;7.63;6.10;;;;;;;;;;4975601;28;20042;-73
2023/06/12 11:47:07;;;;;;;8.57;6.57;;;;;;;;;;4976612;28;20122;-72
2023/06/12 11:49:36;;;;;;;9.73;6.22;;;;;;;;;;4976156;28;20084;-72
2023/06/12 11:52:03;;;;;;;9.63;6.55;;;;;;;;;;4990598;28;20061;-73
2023/06/12 11:54:30;;;;;;;10.43;6.47;;;;;;;;;;4995229;28;20042;-72
2023/06/12 11:56:56;;;;;;;10.93;6.63;;;;;;;;;;4995727;28;20062;-73
2023/06/12 11:59:25;;;;;;;9.30;6.22;;;;;;;;;;4995235;28;20054;-72
2023/06/12 12:01:52;;;;;;;10.27;6.20;;;;;;;;;;4992190;28;20496;-73
2023/06/12 12:04:18;;;;;;;8.00;5.88;;;;;;;;;;4990429;28;20053;-72
2023/06/12 12:06:48;;;;;;;9.77;6.60;;;;;;;;;;4986256;28;20042;-72
2023/06/12 12:09:14;;;;;;;11.75;6.85;;;;;;;;;;4989406;28;20038;-72
2023/06/12 12:11:40;;;;;;;8.77;6.55;;;;;;;;;;4993520;28;20034;-72
2023/06/12 12:14:07;;;;;;;11.07;6.80;;;;;;;;;;4994666;28;20606;-72
2023/06/12 12:16:38;;;;;;;8.40;6.68;;;;;;;;;;4995601;28;20078;-72
2023/06/12 12:19:15;;;;;;;9.95;6.38;;;;;;;;;;4995859;28;20192;-73
2023/06/12 12:21:44;;;;;;;9.60;6.70;;;;;;;;;;4992767;28;20530;-71
2023/06/12 12:24:10;;;;;;;9.35;6.93;;;;;;;;;;4992515;28;20046;-73
2023/06/12 12:26:41;;;;;;;9.02;6.45;;;;;;;;;;4985611;28;20058;-73
2023/06/12 12:29:07;;;;;;;12.18;6.60;;;;;;;;;;4981600;28;20034;-71
2023/06/12 12:31:33;;;;;;;11.35;6.90;;;;;;;;;;4983602;28;20058;-72
2023/06/12 12:33:59;;;;;;;8.65;6.47;;;;;;;;;;4999980;28;20045;-72
2023/06/12 12:36:25;;;;;;;13.00;7.18;;;;;;;;;;4993407;28;20069;-72
2023/06/12 12:38:51;;;;;;;10.90;6.40;;;;;;;;;;4992823;28;20058;-73
2023/06/12 12:41:19;;;;;;;9.25;6.53;;;;;;;;;;4989238;28;20058;-72
2023/06/12 12:43:45;;;;;;;8.43;6.38;;;;;;;;;;4986669;28;21677;-72
2023/06/12 12:46:11;;;;;;;8.95;6.63;;;;;;;;;;4987015;28;20068;-72
2023/06/12 12:48:38;;;;;;;7.88;5.97;;;;;;;;;;4987744;28;20049;-73
2023/06/12 12:51:05;;;;;;;9.35;6.32;;;;;;;;;;4988623;28;20057;-72
2023/06/12 12:53:31;;;;;;;11.60;6.45;;;;;;;;;;4988083;28;20054;-73
2023/06/12 12:55:57;;;;;;;10.70;6.60;;;;;;;;;;4989885;28;20637;-72
2023/06/12 12:58:23;;;;;;;9.57;6.03;;;;;;;;;;4988357;28;20073;-71
2023/06/12 13:00:49;;;;;;;12.85;6.65;;;;;;;;;;4993571;28;20046;-72
2023/06/12 13:03:15;;;;;;;9.05;6.47;;;;;;;;;;4992631;28;20050;-74
2023/06/12 13:05:41;;;;;;;9.00;6.68;;;;;;;;;;4991820;28;21101;-73
2023/06/12 13:08:08;;;;;;;8.77;6.75;;;;;;;;;;4997241;28;20065;-73
2023/06/12 13:10:36;;;;;;;8.13;6.30;;;;;;;;;;5000081;28;20081;-72
2023/06/12 13:13:02;;;;;;;9.05;5.93;;;;;;;;;;4993618;28;20045;-72
2023/06/12 13:15:28;;;;;;;8.70;6.65;;;;;;;;;;4979011;28;20122;-72
2023/06/12 13:17:54;;;;;;;8.07;5.75;;;;;;;;;;4983808;28;20065;-72
2023/06/12 13:20:20;;;;;;;9.18;5.90;;;;;;;;;;5000048;28;20100;-71
2023/06/12 13:22:46;;;;;;;9.25;5.90;;;;;;;;;;4999524;28;20400;-71
2023/06/12 13:25:13;;;;;;;8.75;6.38;;;;;;;;;;4991830;28;20039;-72
2023/06/12 13:27:39;;;;;;;7.88;6.00;;;;;;;;;;4996394;28;20046;-73
2023/06/12 13:30:07;;;;;;;8.95;6.35;;;;;;;;;;4999732;28;20046;-72
2023/06/12 13:32:34;;;;;;;9.68;6.22;;;;;;;;;;4997900;28;20124;-73
2023/06/12 13:35:00;;;;;;;9.27;6.53;;;;;;;;;;4999569;28;20053;-72
2023/06/12 13:37:26;;;;;;;10.38;6.13;;;;;;;;;;4998522;28;20661;-72
2023/06/12 13:39:53;;;;;;;13.02;6.60;;;;;;;;;;4996068;28;20042;-72
2023/06/12 13:42:19;;;;;;;11.02;6.55;;;;;;;;;;4992979;28;20111;-73
2023/06/12 13:44:45;;;;;;;8.23;6.00;;;;;;;;;;4987818;28;20047;-72
2023/06/12 13:47:11;;;;;;;8.98;6.18;;;;;;;;;;4995732;28;20054;-73
2023/06/12 13:49:38;;;;;;;9.25;6.47;;;;;;;;;;4997558;28;20546;-71
2023/06/12 13:52:04;;;;;;;10.80;6.60;;;;;;;;;;4988594;28;20038;-72
2023/06/12 13:54:30;;;;;;;9.48;6.22;;;;;;;;;;4978810;28;20046;-72
2023/06/12 13:56:57;;;;;;;9.50;5.97;;;;;;;;;;4996098;28;20073;-72
2023/06/12 13:59:23;;;;;;;8.40;6.20;;;;;;;;;;4996383;28;20050;-72
2023/06/12 14:01:49;;;;;;;7.95;5.75;;;;;;;;;;4992955;28;20050;-73
2023/06/12 14:04:16;;;;;;;7.28;5.70;;;;;;;;;;4992506;28;20046;-73
2023/06/12 14:06:42;;;;;;;7.38;6.20;;;;;;;;;;4996668;28;20054;-72
2023/06/12 14:09:08;;;;;;;7.57;5.82;;;;;;;;;;4997264;28;20058;-73
2023/06/12 14:11:35;;;;;;;8.73;6.07;;;;;;;;;;4995423;28;20061;-73
2023/06/12 14:14:01;;;;;;;9.60;6.20;;;;;;;;;;4995700;28;20050;-73
2023/06/12 14:16:27;;;;;;;8.95;6.38;;;;;;;;;;4996199;28;20070;-72
2023/06/12 14:18:54;;;;;;;9.25;6.35;;;;;;;;;;4995116;28;20138;-73
2023/06/12 14:21:20;;;;;;;11.35;6.22;;;;;;;;;;4995133;28;20081;-73
2023/06/12 14:23:47;;;;;;;11.18;6.07;;;;;;;;;;4998267;28;20493;-72
2023/06/12 14:26:13;;;;;;;9.15;6.80;;;;;;;;;;4997780;28;20116;-73
2023/06/12 14:28:43;;;;;;;8.80;6.05;;;;;;;;;;4995996;28;20086;-73
2023/06/12 14:31:09;;;;;;;13.50;6.30;;;;;;;;;;4990946;28;20051;-72
2023/06/12 14:33:36;;;;;;;13.90;6.80;;;;;;;;;;4978689;28;20043;-73
2023/06/12 14:36:02;;;;;;;10.38;6.10;;;;;;;;;;4980663;28;20047;-74